sensor_id;sensor_type;location;lat;lon;timestamp;P1;durP1;ratioP1;P2;durP2;ratioP2
59587;SDS011;45412;54.472;18.464;2024-02-15T00:00:26;24.80;;;11.60;;
59587;SDS011;45412;54.472;18.464;2024-02-15T00:03:32;26.40;;;12.30;;
59587;SDS011;45412;54.472;18.464;2024-02-15T00:06:21;20.80;;;9.50;;
59587;SDS011;45412;54.472;18.464;2024-02-15T00:09:08;26.40;;;11.90;;
59587;SDS011;45412;54.472;18.464;2024-02-15T00:11:56;25.10;;;12.40;;
59587;SDS011;45412;54.472;18.464;2024-02-15T00:14:42;24.50;;;11.70;;
59587;SDS011;45412;54.472;18.464;2024-02-15T00:17:29;27.70;;;13.10;;
59587;SDS011;45412;54.472;18.464;2024-02-15T00:20:15;29.80;;;13.50;;
59587;SDS011;45412;54.472;18.464;2024-02-15T00:23:03;25.70;;;12.30;;
59587;SDS011;45412;54.472;18.464;2024-02-15T00:25:50;25.60;;;11.90;;
59587;SDS011;45412;54.472;18.464;2024-02-15T00:28:36;28.60;;;12.50;;
59587;SDS011;45412;54.472;18.464;2024-02-15T00:31:22;24.20;;;11.30;;
59587;SDS011;45412;54.472;18.464;2024-02-15T00:34:09;25.60;;;11.80;;
59587;SDS011;45412;54.472;18.464;2024-02-15T00:36:56;27.50;;;11.70;;
59587;SDS011;45412;54.472;18.464;2024-02-15T00:39:42;25.00;;;10.80;;
59587;SDS011;45412;54.472;18.464;2024-02-15T00:42:28;32.40;;;12.40;;
59587;SDS011;45412;54.472;18.464;2024-02-15T00:45:14;27.70;;;12.40;;
59587;SDS011;45412;54.472;18.464;2024-02-15T00:48:00;27.60;;;12.10;;
59587;SDS011;45412;54.472;18.464;2024-02-15T00:50:47;25.50;;;12.70;;
59587;SDS011;45412;54.472;18.464;2024-02-15T00:53:34;26.10;;;11.10;;
59587;SDS011;45412;54.472;18.464;2024-02-15T00:56:20;25.80;;;12.00;;
59587;SDS011;45412;54.472;18.464;2024-02-15T00:59:08;27.00;;;12.40;;
59587;SDS011;45412;54.472;18.464;2024-02-15T01:01:55;29.20;;;12.30;;
59587;SDS011;45412;54.472;18.464;2024-02-15T01:04:42;24.60;;;9.60;;
59587;SDS011;45412;54.472;18.464;2024-02-15T01:07:30;31.00;;;12.70;;
59587;SDS011;45412;54.472;18.464;2024-02-15T01:10:16;26.10;;;12.80;;
59587;SDS011;45412;54.472;18.464;2024-02-15T01:13:03;28.30;;;13.50;;
59587;SDS011;45412;54.472;18.464;2024-02-15T01:15:49;28.10;;;13.40;;
59587;SDS011;45412;54.472;18.464;2024-02-15T01:18:35;32.40;;;11.60;;
59587;SDS011;45412;54.472;18.464;2024-02-15T01:21:22;31.30;;;12.00;;
59587;SDS011;45412;54.472;18.464;2024-02-15T01:24:08;28.80;;;12.40;;
59587;SDS011;45412;54.472;18.464;2024-02-15T01:26:54;25.40;;;11.90;;
59587;SDS011;45412;54.472;18.464;2024-02-15T01:29:41;32.20;;;13.10;;
59587;SDS011;45412;54.472;18.464;2024-02-15T01:35:16;24.20;;;11.10;;
59587;SDS011;45412;54.472;18.464;2024-02-15T01:38:02;28.20;;;11.40;;
59587;SDS011;45412;54.472;18.464;2024-02-15T01:40:49;25.90;;;11.60;;
59587;SDS011;45412;54.472;18.464;2024-02-15T01:43:37;28.70;;;12.60;;
59587;SDS011;45412;54.472;18.464;2024-02-15T01:46:23;29.30;;;12.70;;
59587;SDS011;45412;54.472;18.464;2024-02-15T01:49:10;28.10;;;12.10;;
59587;SDS011;45412;54.472;18.464;2024-02-15T01:51:57;28.40;;;11.20;;
59587;SDS011;45412;54.472;18.464;2024-02-15T01:54:46;25.10;;;11.00;;
59587;SDS011;45412;54.472;18.464;2024-02-15T01:57:32;29.10;;;13.30;;
59587;SDS011;45412;54.472;18.464;2024-02-15T02:00:19;27.20;;;11.60;;
59587;SDS011;45412;54.472;18.464;2024-02-15T02:03:05;29.30;;;12.80;;
59587;SDS011;45412;54.472;18.464;2024-02-15T02:05:52;23.90;;;10.60;;
59587;SDS011;45412;54.472;18.464;2024-02-15T02:08:38;27.30;;;11.60;;
59587;SDS011;45412;54.472;18.464;2024-02-15T02:11:25;29.90;;;12.60;;
59587;SDS011;45412;54.472;18.464;2024-02-15T02:14:11;26.40;;;11.50;;
59587;SDS011;45412;54.472;18.464;2024-02-15T02:17:11;31.30;;;13.80;;
59587;SDS011;45412;54.472;18.464;2024-02-15T02:19:59;25.90;;;12.90;;
59587;SDS011;45412;54.472;18.464;2024-02-15T02:22:48;25.50;;;11.90;;
59587;SDS011;45412;54.472;18.464;2024-02-15T02:25:37;27.50;;;12.50;;
59587;SDS011;45412;54.472;18.464;2024-02-15T02:28:24;29.20;;;13.60;;
59587;SDS011;45412;54.472;18.464;2024-02-15T02:31:10;27.70;;;12.10;;
59587;SDS011;45412;54.472;18.464;2024-02-15T02:33:57;28.50;;;12.70;;
59587;SDS011;45412;54.472;18.464;2024-02-15T02:36:44;26.60;;;13.00;;
59587;SDS011;45412;54.472;18.464;2024-02-15T02:39:31;23.80;;;11.90;;
59587;SDS011;45412;54.472;18.464;2024-02-15T02:42:18;24.30;;;10.30;;
59587;SDS011;45412;54.472;18.464;2024-02-15T02:45:04;23.90;;;10.80;;
59587;SDS011;45412;54.472;18.464;2024-02-15T02:47:52;23.40;;;11.90;;
59587;SDS011;45412;54.472;18.464;2024-02-15T02:50:39;26.20;;;12.40;;
59587;SDS011;45412;54.472;18.464;2024-02-15T02:53:26;27.60;;;14.10;;
59587;SDS011;45412;54.472;18.464;2024-02-15T02:56:12;29.10;;;12.90;;
59587;SDS011;45412;54.472;18.464;2024-02-15T02:58:59;25.30;;;11.70;;
59587;SDS011;45412;54.472;18.464;2024-02-15T03:01:45;26.10;;;11.80;;
59587;SDS011;45412;54.472;18.464;2024-02-15T03:04:32;27.10;;;12.90;;
59587;SDS011;45412;54.472;18.464;2024-02-15T03:07:19;28.30;;;12.30;;
59587;SDS011;45412;54.472;18.464;2024-02-15T03:10:05;30.30;;;12.50;;
59587;SDS011;45412;54.472;18.464;2024-02-15T03:12:54;26.40;;;12.10;;
59587;SDS011;45412;54.472;18.464;2024-02-15T03:15:41;25.50;;;12.30;;
59587;SDS011;45412;54.472;18.464;2024-02-15T03:18:27;24.60;;;11.50;;
59587;SDS011;45412;54.472;18.464;2024-02-15T03:21:14;28.30;;;13.40;;
59587;SDS011;45412;54.472;18.464;2024-02-15T03:24:00;23.00;;;11.40;;
59587;SDS011;45412;54.472;18.464;2024-02-15T03:26:47;24.30;;;11.80;;
59587;SDS011;45412;54.472;18.464;2024-02-15T03:29:33;24.60;;;11.30;;
59587;SDS011;45412;54.472;18.464;2024-02-15T03:32:21;26.20;;;13.00;;
59587;SDS011;45412;54.472;18.464;2024-02-15T03:35:08;23.00;;;10.80;;
59587;SDS011;45412;54.472;18.464;2024-02-15T03:37:54;24.40;;;11.20;;
59587;SDS011;45412;54.472;18.464;2024-02-15T03:40:40;24.70;;;11.70;;
59587;SDS011;45412;54.472;18.464;2024-02-15T03:43:26;21.00;;;11.10;;
59587;SDS011;45412;54.472;18.464;2024-02-15T03:46:13;22.50;;;10.60;;
59587;SDS011;45412;54.472;18.464;2024-02-15T03:49:00;23.20;;;11.20;;
59587;SDS011;45412;54.472;18.464;2024-02-15T03:51:47;22.60;;;10.70;;
59587;SDS011;45412;54.472;18.464;2024-02-15T03:54:35;21.90;;;8.80;;
59587;SDS011;45412;54.472;18.464;2024-02-15T03:57:21;23.50;;;10.20;;
59587;SDS011;45412;54.472;18.464;2024-02-15T04:00:07;23.70;;;11.10;;
59587;SDS011;45412;54.472;18.464;2024-02-15T04:02:56;25.20;;;12.40;;
59587;SDS011;45412;54.472;18.464;2024-02-15T04:05:43;23.80;;;12.30;;
59587;SDS011;45412;54.472;18.464;2024-02-15T04:08:29;22.20;;;11.10;;
59587;SDS011;45412;54.472;18.464;2024-02-15T04:11:16;21.40;;;10.60;;
59587;SDS011;45412;54.472;18.464;2024-02-15T04:14:02;17.10;;;8.00;;
59587;SDS011;45412;54.472;18.464;2024-02-15T04:16:48;24.60;;;11.30;;
59587;SDS011;45412;54.472;18.464;2024-02-15T04:19:34;20.60;;;9.90;;
59587;SDS011;45412;54.472;18.464;2024-02-15T04:22:20;16.60;;;8.30;;
59587;SDS011;45412;54.472;18.464;2024-02-15T04:25:07;19.80;;;9.80;;
59587;SDS011;45412;54.472;18.464;2024-02-15T04:28:02;20.70;;;9.40;;
59587;SDS011;45412;54.472;18.464;2024-02-15T04:30:49;20.50;;;9.90;;
59587;SDS011;45412;54.472;18.464;2024-02-15T04:33:35;18.00;;;9.00;;
59587;SDS011;45412;54.472;18.464;2024-02-15T04:36:22;17.70;;;8.70;;
59587;SDS011;45412;54.472;18.464;2024-02-15T04:39:12;21.00;;;9.80;;
59587;SDS011;45412;54.472;18.464;2024-02-15T04:42:09;18.30;;;8.30;;
59587;SDS011;45412;54.472;18.464;2024-02-15T04:44:57;16.20;;;8.00;;
59587;SDS011;45412;54.472;18.464;2024-02-15T04:47:44;20.70;;;9.30;;
59587;SDS011;45412;54.472;18.464;2024-02-15T04:50:35;16.90;;;8.10;;
59587;SDS011;45412;54.472;18.464;2024-02-15T04:53:22;20.40;;;9.00;;
59587;SDS011;45412;54.472;18.464;2024-02-15T04:56:08;17.30;;;7.80;;
59587;SDS011;45412;54.472;18.464;2024-02-15T04:58:59;16.10;;;7.60;;
59587;SDS011;45412;54.472;18.464;2024-02-15T05:01:46;17.80;;;8.90;;
59587;SDS011;45412;54.472;18.464;2024-02-15T05:04:32;15.00;;;7.30;;
59587;SDS011;45412;54.472;18.464;2024-02-15T05:07:22;18.60;;;8.90;;
59587;SDS011;45412;54.472;18.464;2024-02-15T05:10:09;17.70;;;8.50;;
59587;SDS011;45412;54.472;18.464;2024-02-15T05:12:56;18.20;;;8.90;;
59587;SDS011;45412;54.472;18.464;2024-02-15T05:15:42;16.00;;;7.20;;
59587;SDS011;45412;54.472;18.464;2024-02-15T05:18:28;16.10;;;7.70;;
59587;SDS011;45412;54.472;18.464;2024-02-15T05:21:16;17.70;;;8.30;;
59587;SDS011;45412;54.472;18.464;2024-02-15T05:24:04;17.80;;;7.60;;
59587;SDS011;45412;54.472;18.464;2024-02-15T05:26:51;16.50;;;8.40;;
59587;SDS011;45412;54.472;18.464;2024-02-15T05:29:38;18.70;;;8.70;;
59587;SDS011;45412;54.472;18.464;2024-02-15T05:32:25;19.80;;;9.20;;
59587;SDS011;45412;54.472;18.464;2024-02-15T05:35:12;19.80;;;9.10;;
59587;SDS011;45412;54.472;18.464;2024-02-15T05:37:58;16.80;;;7.80;;
59587;SDS011;45412;54.472;18.464;2024-02-15T05:40:44;16.60;;;8.10;;
59587;SDS011;45412;54.472;18.464;2024-02-15T05:43:31;16.80;;;7.90;;
59587;SDS011;45412;54.472;18.464;2024-02-15T05:46:18;16.70;;;8.50;;
59587;SDS011;45412;54.472;18.464;2024-02-15T05:49:07;19.90;;;9.30;;
59587;SDS011;45412;54.472;18.464;2024-02-15T05:51:59;17.70;;;8.40;;
59587;SDS011;45412;54.472;18.464;2024-02-15T05:54:45;17.40;;;8.40;;
59587;SDS011;45412;54.472;18.464;2024-02-15T05:57:31;16.40;;;7.80;;
59587;SDS011;45412;54.472;18.464;2024-02-15T06:00:18;16.50;;;7.70;;
59587;SDS011;45412;54.472;18.464;2024-02-15T06:03:08;17.30;;;7.50;;
59587;SDS011;45412;54.472;18.464;2024-02-15T06:05:55;16.20;;;7.50;;
59587;SDS011;45412;54.472;18.464;2024-02-15T06:08:46;14.10;;;7.30;;
59587;SDS011;45412;54.472;18.464;2024-02-15T06:11:33;16.20;;;7.30;;
59587;SDS011;45412;54.472;18.464;2024-02-15T06:14:19;14.30;;;6.60;;
59587;SDS011;45412;54.472;18.464;2024-02-15T06:17:05;15.70;;;7.40;;
59587;SDS011;45412;54.472;18.464;2024-02-15T06:19:52;14.50;;;6.30;;
59587;SDS011;45412;54.472;18.464;2024-02-15T06:22:38;15.60;;;7.30;;
59587;SDS011;45412;54.472;18.464;2024-02-15T06:25:25;15.30;;;6.90;;
59587;SDS011;45412;54.472;18.464;2024-02-15T06:28:11;16.00;;;6.70;;
59587;SDS011;45412;54.472;18.464;2024-02-15T06:31:26;14.70;;;6.90;;
59587;SDS011;45412;54.472;18.464;2024-02-15T06:34:31;14.00;;;7.20;;
59587;SDS011;45412;54.472;18.464;2024-02-15T06:37:36;16.30;;;7.40;;
59587;SDS011;45412;54.472;18.464;2024-02-15T06:40:42;13.20;;;6.30;;
59587;SDS011;45412;54.472;18.464;2024-02-15T06:43:28;17.80;;;8.80;;
59587;SDS011;45412;54.472;18.464;2024-02-15T06:46:14;15.70;;;7.30;;
59587;SDS011;45412;54.472;18.464;2024-02-15T06:49:01;18.10;;;8.30;;
59587;SDS011;45412;54.472;18.464;2024-02-15T06:51:48;17.80;;;8.50;;
59587;SDS011;45412;54.472;18.464;2024-02-15T06:54:37;17.80;;;8.40;;
59587;SDS011;45412;54.472;18.464;2024-02-15T06:57:24;19.70;;;8.80;;
59587;SDS011;45412;54.472;18.464;2024-02-15T07:00:11;15.10;;;8.10;;
59587;SDS011;45412;54.472;18.464;2024-02-15T07:03:01;16.10;;;8.40;;
59587;SDS011;45412;54.472;18.464;2024-02-15T07:05:48;16.30;;;7.90;;
59587;SDS011;45412;54.472;18.464;2024-02-15T07:08:36;17.00;;;7.20;;
59587;SDS011;45412;54.472;18.464;2024-02-15T07:11:22;16.20;;;7.60;;
59587;SDS011;45412;54.472;18.464;2024-02-15T07:14:08;15.60;;;7.70;;
59587;SDS011;45412;54.472;18.464;2024-02-15T07:16:55;16.00;;;7.80;;
59587;SDS011;45412;54.472;18.464;2024-02-15T07:19:44;16.00;;;7.40;;
59587;SDS011;45412;54.472;18.464;2024-02-15T07:22:31;15.40;;;8.10;;
59587;SDS011;45412;54.472;18.464;2024-02-15T07:25:19;15.40;;;7.90;;
59587;SDS011;45412;54.472;18.464;2024-02-15T07:28:06;15.10;;;7.70;;
59587;SDS011;45412;54.472;18.464;2024-02-15T07:30:54;16.10;;;7.90;;
59587;SDS011;45412;54.472;18.464;2024-02-15T07:33:40;13.70;;;7.70;;
59587;SDS011;45412;54.472;18.464;2024-02-15T07:36:28;14.50;;;7.80;;
59587;SDS011;45412;54.472;18.464;2024-02-15T07:39:15;16.40;;;7.80;;
59587;SDS011;45412;54.472;18.464;2024-02-15T07:42:09;14.30;;;7.90;;
59587;SDS011;45412;54.472;18.464;2024-02-15T07:44:56;16.90;;;8.20;;
59587;SDS011;45412;54.472;18.464;2024-02-15T07:47:42;15.30;;;8.00;;
59587;SDS011;45412;54.472;18.464;2024-02-15T07:50:29;16.60;;;8.00;;
59587;SDS011;45412;54.472;18.464;2024-02-15T07:53:15;15.90;;;7.20;;
59587;SDS011;45412;54.472;18.464;2024-02-15T07:56:01;16.00;;;7.30;;
59587;SDS011;45412;54.472;18.464;2024-02-15T07:58:48;14.60;;;7.50;;
59587;SDS011;45412;54.472;18.464;2024-02-15T08:01:43;14.80;;;7.60;;
59587;SDS011;45412;54.472;18.464;2024-02-15T08:04:31;17.90;;;7.50;;
59587;SDS011;45412;54.472;18.464;2024-02-15T08:07:19;16.10;;;7.20;;
59587;SDS011;45412;54.472;18.464;2024-02-15T08:10:07;18.20;;;7.40;;
59587;SDS011;45412;54.472;18.464;2024-02-15T08:12:59;15.50;;;7.30;;
59587;SDS011;45412;54.472;18.464;2024-02-15T08:15:45;14.30;;;7.30;;
59587;SDS011;45412;54.472;18.464;2024-02-15T08:18:32;19.60;;;8.20;;
59587;SDS011;45412;54.472;18.464;2024-02-15T08:21:18;16.50;;;7.30;;
59587;SDS011;45412;54.472;18.464;2024-02-15T08:24:11;17.10;;;8.00;;
59587;SDS011;45412;54.472;18.464;2024-02-15T08:26:57;17.30;;;8.30;;
59587;SDS011;45412;54.472;18.464;2024-02-15T08:29:45;17.80;;;8.10;;
59587;SDS011;45412;54.472;18.464;2024-02-15T08:32:31;15.70;;;8.70;;
59587;SDS011;45412;54.472;18.464;2024-02-15T08:35:17;16.00;;;8.70;;
59587;SDS011;45412;54.472;18.464;2024-02-15T08:38:04;16.80;;;8.30;;
59587;SDS011;45412;54.472;18.464;2024-02-15T08:40:52;18.20;;;8.40;;
59587;SDS011;45412;54.472;18.464;2024-02-15T08:43:38;17.40;;;8.50;;
59587;SDS011;45412;54.472;18.464;2024-02-15T08:46:27;17.70;;;7.70;;
59587;SDS011;45412;54.472;18.464;2024-02-15T08:49:14;17.10;;;8.70;;
59587;SDS011;45412;54.472;18.464;2024-02-15T08:52:01;14.20;;;7.60;;
59587;SDS011;45412;54.472;18.464;2024-02-15T08:54:47;17.20;;;8.50;;
59587;SDS011;45412;54.472;18.464;2024-02-15T08:57:34;15.60;;;7.80;;
59587;SDS011;45412;54.472;18.464;2024-02-15T09:00:20;15.30;;;7.70;;
59587;SDS011;45412;54.472;18.464;2024-02-15T09:03:06;18.00;;;8.50;;
59587;SDS011;45412;54.472;18.464;2024-02-15T09:05:53;13.80;;;6.30;;
59587;SDS011;45412;54.472;18.464;2024-02-15T09:08:40;17.40;;;8.30;;
59587;SDS011;45412;54.472;18.464;2024-02-15T09:11:30;15.90;;;7.40;;
59587;SDS011;45412;54.472;18.464;2024-02-15T09:14:16;16.90;;;7.50;;
59587;SDS011;45412;54.472;18.464;2024-02-15T09:17:03;14.20;;;7.30;;
59587;SDS011;45412;54.472;18.464;2024-02-15T09:19:54;17.90;;;8.10;;
59587;SDS011;45412;54.472;18.464;2024-02-15T09:22:50;17.70;;;7.90;;
59587;SDS011;45412;54.472;18.464;2024-02-15T09:25:38;16.00;;;8.50;;
59587;SDS011;45412;54.472;18.464;2024-02-15T09:28:24;17.10;;;6.90;;
59587;SDS011;45412;54.472;18.464;2024-02-15T09:31:12;17.10;;;8.60;;
59587;SDS011;45412;54.472;18.464;2024-02-15T09:33:59;17.30;;;8.40;;
59587;SDS011;45412;54.472;18.464;2024-02-15T09:36:45;18.30;;;8.40;;
59587;SDS011;45412;54.472;18.464;2024-02-15T09:39:31;16.90;;;8.20;;
59587;SDS011;45412;54.472;18.464;2024-02-15T09:42:18;18.40;;;8.00;;
59587;SDS011;45412;54.472;18.464;2024-02-15T09:45:05;16.60;;;8.20;;
59587;SDS011;45412;54.472;18.464;2024-02-15T09:47:52;18.10;;;8.40;;
59587;SDS011;45412;54.472;18.464;2024-02-15T09:50:39;15.80;;;8.20;;
59587;SDS011;45412;54.472;18.464;2024-02-15T09:53:28;18.60;;;8.90;;
59587;SDS011;45412;54.472;18.464;2024-02-15T09:56:15;16.50;;;7.40;;
59587;SDS011;45412;54.472;18.464;2024-02-15T09:59:02;16.60;;;7.20;;
59587;SDS011;45412;54.472;18.464;2024-02-15T10:01:48;16.20;;;7.30;;
59587;SDS011;45412;54.472;18.464;2024-02-15T10:04:35;17.10;;;8.00;;
59587;SDS011;45412;54.472;18.464;2024-02-15T10:07:24;17.80;;;7.30;;
59587;SDS011;45412;54.472;18.464;2024-02-15T10:13:12;16.80;;;7.50;;
59587;SDS011;45412;54.472;18.464;2024-02-15T10:15:59;17.00;;;7.60;;
59587;SDS011;45412;54.472;18.464;2024-02-15T10:18:45;16.30;;;7.40;;
59587;SDS011;45412;54.472;18.464;2024-02-15T10:21:35;14.90;;;7.40;;
59587;SDS011;45412;54.472;18.464;2024-02-15T10:24:25;16.30;;;8.20;;
59587;SDS011;45412;54.472;18.464;2024-02-15T10:27:11;17.40;;;8.20;;
59587;SDS011;45412;54.472;18.464;2024-02-15T10:30:01;18.60;;;7.20;;
59587;SDS011;45412;54.472;18.464;2024-02-15T10:33:17;16.70;;;7.60;;
59587;SDS011;45412;54.472;18.464;2024-02-15T10:36:17;18.10;;;8.20;;
59587;SDS011;45412;54.472;18.464;2024-02-15T10:39:13;17.20;;;6.90;;
59587;SDS011;45412;54.472;18.464;2024-02-15T10:42:06;16.00;;;7.20;;
59587;SDS011;45412;54.472;18.464;2024-02-15T10:44:53;18.50;;;8.30;;
59587;SDS011;45412;54.472;18.464;2024-02-15T10:47:39;14.00;;;6.40;;
59587;SDS011;45412;54.472;18.464;2024-02-15T10:50:28;15.50;;;6.80;;
59587;SDS011;45412;54.472;18.464;2024-02-15T10:53:27;16.50;;;7.50;;
59587;SDS011;45412;54.472;18.464;2024-02-15T10:56:18;14.90;;;6.70;;
59587;SDS011;45412;54.472;18.464;2024-02-15T11:02:28;17.90;;;8.60;;
59587;SDS011;45412;54.472;18.464;2024-02-15T11:05:17;14.10;;;7.00;;
59587;SDS011;45412;54.472;18.464;2024-02-15T11:08:09;18.70;;;8.30;;
59587;SDS011;45412;54.472;18.464;2024-02-15T11:10:56;16.50;;;8.20;;
59587;SDS011;45412;54.472;18.464;2024-02-15T11:13:46;17.60;;;7.70;;
59587;SDS011;45412;54.472;18.464;2024-02-15T11:16:43;14.70;;;7.10;;
59587;SDS011;45412;54.472;18.464;2024-02-15T11:22:32;16.50;;;7.80;;
59587;SDS011;45412;54.472;18.464;2024-02-15T11:25:19;19.20;;;8.80;;
59587;SDS011;45412;54.472;18.464;2024-02-15T11:28:34;15.50;;;6.80;;
59587;SDS011;45412;54.472;18.464;2024-02-15T11:31:54;19.50;;;9.30;;
59587;SDS011;45412;54.472;18.464;2024-02-15T11:34:44;18.40;;;8.60;;
59587;SDS011;45412;54.472;18.464;2024-02-15T11:43:48;20.10;;;9.70;;
59587;SDS011;45412;54.472;18.464;2024-02-15T11:46:43;22.50;;;9.40;;
59587;SDS011;45412;54.472;18.464;2024-02-15T11:49:30;19.30;;;9.60;;
59587;SDS011;45412;54.472;18.464;2024-02-15T11:52:19;19.50;;;9.30;;
59587;SDS011;45412;54.472;18.464;2024-02-15T11:55:07;18.80;;;8.60;;
59587;SDS011;45412;54.472;18.464;2024-02-15T11:57:59;18.70;;;8.30;;
59587;SDS011;45412;54.472;18.464;2024-02-15T12:01:00;21.70;;;10.30;;
59587;SDS011;45412;54.472;18.464;2024-02-15T12:04:05;19.90;;;9.30;;
59587;SDS011;45412;54.472;18.464;2024-02-15T12:07:10;22.40;;;9.60;;
59587;SDS011;45412;54.472;18.464;2024-02-15T12:10:17;24.00;;;10.40;;
59587;SDS011;45412;54.472;18.464;2024-02-15T12:13:22;20.10;;;9.90;;
59587;SDS011;45412;54.472;18.464;2024-02-15T12:16:31;19.20;;;9.10;;
59587;SDS011;45412;54.472;18.464;2024-02-15T12:19:36;18.50;;;9.70;;
59587;SDS011;45412;54.472;18.464;2024-02-15T12:22:33;17.70;;;8.70;;
59587;SDS011;45412;54.472;18.464;2024-02-15T12:25:26;17.40;;;9.20;;
59587;SDS011;45412;54.472;18.464;2024-02-15T12:28:12;18.50;;;8.40;;
59587;SDS011;45412;54.472;18.464;2024-02-15T12:31:01;18.10;;;9.20;;
59587;SDS011;45412;54.472;18.464;2024-02-15T12:34:02;20.60;;;9.70;;
59587;SDS011;45412;54.472;18.464;2024-02-15T12:37:05;17.20;;;8.10;;
59587;SDS011;45412;54.472;18.464;2024-02-15T12:39:54;18.20;;;9.00;;
59587;SDS011;45412;54.472;18.464;2024-02-15T12:42:40;18.20;;;9.00;;
59587;SDS011;45412;54.472;18.464;2024-02-15T12:45:27;17.60;;;9.60;;
59587;SDS011;45412;54.472;18.464;2024-02-15T12:48:14;19.70;;;9.00;;
59587;SDS011;45412;54.472;18.464;2024-02-15T12:51:14;15.80;;;7.60;;
59587;SDS011;45412;54.472;18.464;2024-02-15T12:54:08;19.20;;;9.00;;
59587;SDS011;45412;54.472;18.464;2024-02-15T12:57:09;19.10;;;9.70;;
59587;SDS011;45412;54.472;18.464;2024-02-15T12:59:59;15.60;;;6.90;;
59587;SDS011;45412;54.472;18.464;2024-02-15T13:02:50;17.40;;;8.10;;
59587;SDS011;45412;54.472;18.464;2024-02-15T13:05:38;14.00;;;7.20;;
59587;SDS011;45412;54.472;18.464;2024-02-15T13:08:25;17.00;;;7.60;;
59587;SDS011;45412;54.472;18.464;2024-02-15T13:11:11;17.20;;;8.70;;
59587;SDS011;45412;54.472;18.464;2024-02-15T13:13:58;17.70;;;8.20;;
59587;SDS011;45412;54.472;18.464;2024-02-15T13:16:44;17.30;;;7.50;;
59587;SDS011;45412;54.472;18.464;2024-02-15T13:19:32;16.10;;;8.20;;
59587;SDS011;45412;54.472;18.464;2024-02-15T13:22:22;14.10;;;7.40;;
59587;SDS011;45412;54.472;18.464;2024-02-15T13:25:08;16.20;;;7.70;;
59587;SDS011;45412;54.472;18.464;2024-02-15T13:27:55;16.70;;;8.20;;
59587;SDS011;45412;54.472;18.464;2024-02-15T13:30:43;17.90;;;8.50;;
59587;SDS011;45412;54.472;18.464;2024-02-15T13:33:31;12.70;;;6.60;;
59587;SDS011;45412;54.472;18.464;2024-02-15T13:36:19;16.50;;;8.00;;
59587;SDS011;45412;54.472;18.464;2024-02-15T13:39:05;16.00;;;8.00;;
59587;SDS011;45412;54.472;18.464;2024-02-15T13:41:55;17.70;;;8.50;;
59587;SDS011;45412;54.472;18.464;2024-02-15T13:44:45;14.70;;;6.70;;
59587;SDS011;45412;54.472;18.464;2024-02-15T13:47:33;14.50;;;8.00;;
59587;SDS011;45412;54.472;18.464;2024-02-15T13:50:19;14.60;;;7.30;;
59587;SDS011;45412;54.472;18.464;2024-02-15T13:53:06;14.10;;;7.00;;
59587;SDS011;45412;54.472;18.464;2024-02-15T13:55:54;15.10;;;7.10;;
59587;SDS011;45412;54.472;18.464;2024-02-15T13:58:41;13.80;;;7.40;;
59587;SDS011;45412;54.472;18.464;2024-02-15T14:01:27;14.00;;;6.50;;
59587;SDS011;45412;54.472;18.464;2024-02-15T14:04:14;13.30;;;5.80;;
59587;SDS011;45412;54.472;18.464;2024-02-15T14:07:02;13.60;;;6.50;;
59587;SDS011;45412;54.472;18.464;2024-02-15T14:09:49;14.70;;;6.80;;
59587;SDS011;45412;54.472;18.464;2024-02-15T14:12:47;13.10;;;6.40;;
59587;SDS011;45412;54.472;18.464;2024-02-15T14:15:35;12.30;;;5.70;;
59587;SDS011;45412;54.472;18.464;2024-02-15T14:18:24;13.70;;;6.20;;
59587;SDS011;45412;54.472;18.464;2024-02-15T14:21:11;12.30;;;5.00;;
59587;SDS011;45412;54.472;18.464;2024-02-15T14:23:57;12.10;;;5.60;;
59587;SDS011;45412;54.472;18.464;2024-02-15T14:26:44;15.70;;;6.60;;
59587;SDS011;45412;54.472;18.464;2024-02-15T14:29:30;14.60;;;6.00;;
59587;SDS011;45412;54.472;18.464;2024-02-15T14:32:18;14.50;;;6.30;;
59587;SDS011;45412;54.472;18.464;2024-02-15T14:35:23;14.40;;;6.10;;
59587;SDS011;45412;54.472;18.464;2024-02-15T14:38:11;14.40;;;5.60;;
59587;SDS011;45412;54.472;18.464;2024-02-15T14:40:58;17.60;;;6.80;;
59587;SDS011;45412;54.472;18.464;2024-02-15T14:43:46;19.40;;;7.90;;
59587;SDS011;45412;54.472;18.464;2024-02-15T14:46:33;17.70;;;6.80;;
59587;SDS011;45412;54.472;18.464;2024-02-15T14:49:21;20.00;;;6.70;;
59587;SDS011;45412;54.472;18.464;2024-02-15T14:52:08;19.10;;;6.70;;
59587;SDS011;45412;54.472;18.464;2024-02-15T14:54:54;20.60;;;7.10;;
59587;SDS011;45412;54.472;18.464;2024-02-15T14:57:40;15.10;;;6.50;;
59587;SDS011;45412;54.472;18.464;2024-02-15T15:00:27;13.90;;;6.30;;
59587;SDS011;45412;54.472;18.464;2024-02-15T15:03:14;17.20;;;7.50;;
59587;SDS011;45412;54.472;18.464;2024-02-15T15:06:01;16.30;;;6.90;;
59587;SDS011;45412;54.472;18.464;2024-02-15T15:09:06;16.30;;;7.00;;
59587;SDS011;45412;54.472;18.464;2024-02-15T15:12:11;15.30;;;7.20;;
59587;SDS011;45412;54.472;18.464;2024-02-15T15:15:16;14.80;;;6.40;;
59587;SDS011;45412;54.472;18.464;2024-02-15T15:18:04;12.40;;;6.20;;
59587;SDS011;45412;54.472;18.464;2024-02-15T15:20:51;14.40;;;6.50;;
59587;SDS011;45412;54.472;18.464;2024-02-15T15:23:37;14.50;;;6.30;;
59587;SDS011;45412;54.472;18.464;2024-02-15T15:26:25;13.50;;;6.30;;
59587;SDS011;45412;54.472;18.464;2024-02-15T15:29:12;13.90;;;6.70;;
59587;SDS011;45412;54.472;18.464;2024-02-15T15:32:00;13.20;;;6.30;;
59587;SDS011;45412;54.472;18.464;2024-02-15T15:34:47;13.20;;;6.60;;
59587;SDS011;45412;54.472;18.464;2024-02-15T15:37:33;15.70;;;6.90;;
59587;SDS011;45412;54.472;18.464;2024-02-15T15:40:20;14.30;;;7.60;;
59587;SDS011;45412;54.472;18.464;2024-02-15T15:43:07;15.90;;;7.60;;
59587;SDS011;45412;54.472;18.464;2024-02-15T15:45:54;17.20;;;7.20;;
59587;SDS011;45412;54.472;18.464;2024-02-15T15:48:40;16.00;;;7.90;;
59587;SDS011;45412;54.472;18.464;2024-02-15T15:51:27;15.90;;;8.40;;
59587;SDS011;45412;54.472;18.464;2024-02-15T15:54:13;16.00;;;8.10;;
59587;SDS011;45412;54.472;18.464;2024-02-15T15:57:00;15.50;;;8.30;;
59587;SDS011;45412;54.472;18.464;2024-02-15T15:59:46;15.70;;;8.60;;
59587;SDS011;45412;54.472;18.464;2024-02-15T16:02:34;18.60;;;8.90;;
59587;SDS011;45412;54.472;18.464;2024-02-15T16:05:21;17.30;;;8.50;;
59587;SDS011;45412;54.472;18.464;2024-02-15T16:08:08;17.80;;;8.80;;
59587;SDS011;45412;54.472;18.464;2024-02-15T16:10:54;18.30;;;9.80;;
59587;SDS011;45412;54.472;18.464;2024-02-15T16:13:42;20.40;;;10.30;;
59587;SDS011;45412;54.472;18.464;2024-02-15T16:16:29;20.40;;;10.40;;
59587;SDS011;45412;54.472;18.464;2024-02-15T16:19:15;21.00;;;10.20;;
59587;SDS011;45412;54.472;18.464;2024-02-15T16:22:02;20.80;;;10.80;;
59587;SDS011;45412;54.472;18.464;2024-02-15T16:24:48;18.80;;;10.80;;
59587;SDS011;45412;54.472;18.464;2024-02-15T16:27:39;22.90;;;11.80;;
59587;SDS011;45412;54.472;18.464;2024-02-15T16:30:26;20.00;;;10.90;;
59587;SDS011;45412;54.472;18.464;2024-02-15T16:33:13;19.70;;;10.80;;
59587;SDS011;45412;54.472;18.464;2024-02-15T16:35:59;21.00;;;11.20;;
59587;SDS011;45412;54.472;18.464;2024-02-15T16:38:46;23.00;;;11.50;;
59587;SDS011;45412;54.472;18.464;2024-02-15T16:41:33;23.20;;;11.00;;